x

Port Aransas, Tx (ptat2) Weather Station

3:00am - Tue 22nd Jul 2014 All times are CDT. -5 hours from GMT.

  • Wind
    11mph, 13mph gusts
  • Sea Temp 86°f
  • Air Temp 82°f
  • Sea Pressure 1015.5mb
  • Port Aransas, Tx
  • Port Aransas, Tx

More Historic Weather Station data

Upgrade to MSW Pro to gain access to the past 30 days of data for over 8000 Wavebouys and Weather Stations around the globe.

Join Pro

Comparision Forecast

View Surf forecast
   
Tue 07/22 3:00am 11 13 mph 1015.5mb 86f 82f
2:00am 15
mph
1015.2mb 86f 82f
1:00am 16 18 mph 1014.9mb 86f 82f
12:00am 16 17 mph 1015.3mb 86f 82f
Mon 07/21 11:00pm 16 18 mph 1015.6mb 87f 82f
10:00pm 16 18 mph 1015.2mb 87f 83f
9:00pm 18 21 mph 1014.8mb 88f 83f
8:00pm 20 21 mph 1014.5mb 88f 83f
7:00pm 18 20 mph 1014.5mb 89f 83f
6:00pm 17 20 mph 1014.6mb 89f 83f
5:00pm 18 21 mph 1014.8mb 89f 83f
4:00pm 17 20 mph 1015.2mb 88f 83f
3:00pm 16 20 mph 1015.8mb 87f 83f
2:00pm 16 17 mph 1016.1mb 87f 83f
1:00pm 15 16 mph 1016.5mb 86f 83f
12:00pm 13 14 mph 1016.7mb 85f 83f
11:00am 11 13 mph 1016.6mb 85f 83f
10:00am 11 13 mph 1016.4mb 85f 83f
9:00am 10 11 mph 1016mb 84f 83f
8:00am 11 13 mph 1015.6mb 84f 82f
7:00am 10 11 mph 1015.1mb 84f 82f
6:00am 11 13 mph 1014.7mb 85f 82f
5:00am 10 11 mph 1014.6mb 85f 82f
4:00am 13 15 mph 1013.9mb 85f 82f
3:00am 14 15 mph 1013.9mb 85f 82f
2:00am 15 17 mph 1014.4mb 85f 82f
1:00am 16 18 mph 1014.5mb 86f 82f
12:00am 17 20 mph 1014.4mb 86f 82f
Sun 07/20 11:00pm 16 20 mph 1014.5mb 86f 83f
10:00pm 21 23 mph 1013.6mb 87f 83f
9:00pm 22 25 mph 1013.2mb 87f 83f
8:00pm 20 22 mph 1013mb 87f 83f
7:00pm 20 22 mph 1013.1mb 87f 83f
6:00pm 15 16 mph 1013.4mb 87f 83f
5:00pm 18 20 mph 1013.3mb 87f 83f
4:00pm 16 18 mph 1013.6mb 87f 84f
3:00pm 14 15 mph 1014.2mb 86f 84f
2:00pm 11 13 mph 1014.9mb 86f 83f
1:00pm 10 11 mph 1015.4mb 85f 83f
12:00pm 7 8 mph 1015.4mb 85f 83f
11:00am 7 8 mph 1015.4mb 84f 83f
10:00am 7
mph
1015.5mb 84f 83f
9:00am 7 8 mph 1015.8mb 84f 82f
8:00am 8 9 mph 1015.3mb 84f 82f
7:00am 9
mph
1015mb 84f 82f
6:00am 11
mph
1014.4mb 84f 82f
5:00am 10 11 mph 1014mb 84f 82f
4:00am 14 16 mph 1013.6mb 84f 82f
3:00am 15 17 mph 1014mb 84f 82f
2:00am 16 17 mph 1013.7mb 84f 82f
1:00am 13 14 mph 1014.8mb 85f 83f
12:00am 11 13 mph 1015mb 85f 82f
Sat 07/19 11:00pm 11 13 mph 1014.3mb 85f 82f
10:00pm 13 14 mph 1013.8mb 85f 83f
9:00pm 10 11 mph 1013.6mb 84f 83f
8:00pm 10 11 mph 1013.1mb 85f 83f
7:00pm 13 14 mph 1012.7mb 85f 82f
6:00pm 14 15 mph 1013.1mb 85f 82f
5:00pm 14
mph
1013.6mb 85f 82f
4:00pm 15 16 mph 1014.1mb 85f 82f
3:00pm 15 16 mph 1014.6mb 85f 82f
2:00pm 14 15 mph 1015.2mb 84f 82f
1:00pm 14
mph
1015.5mb 84f 81f
12:00pm 13 14 mph 1015.5mb 84f 81f
11:00am 11 13 mph 1015.3mb 83f 80f
10:00am 13 14 mph 1014.9mb 83f 80f
9:00am 11 13 mph 1014.7mb 83f 80f
8:00am 10 11 mph 1014.8mb 83f 79f
7:00am 3 5 mph 1014.2mb 83f 80f
6:00am 5 6 mph 1013.6mb 83f 79f
5:00am 2 3 mph 1013.4mb 83f 79f
4:00am 6 8 mph 1013.6mb 83f 81f
3:00am 6
mph
1013.5mb 84f 80f
2:00am 5 6 mph 1013.5mb 84f 81f
1:00am 3
mph
1013.8mb 84f 81f
12:00am 3 5 mph 1013.8mb 84f 81f
Fri 07/18 11:00pm 5
mph
1013.4mb 84f 81f
10:00pm 6 7 mph 1013mb 84f 81f
9:00pm 9 10 mph 1012.2mb 84f 81f
8:00pm 13 14 mph 1012mb 85f 81f
7:00pm 15 17 mph 1011.4mb 85f 82f
6:00pm 13 14 mph 1011.7mb 85f 82f
5:00pm 2 3 mph 1011.8mb 85f 83f
4:00pm 9 14 mph 1011.8mb 85f 82f
3:00pm 11 13 mph 1012.2mb 85f 81f
2:00pm 11 13 mph 1012.5mb 84f 81f
1:00pm 11 14 mph 1012.3mb 84f 81f
12:00pm 13 14 mph 1012.4mb 84f 82f
11:00am 13
mph
1012.8mb 84f 82f
10:00am 14 15 mph 1012.5mb 84f 82f